sensor_id;sensor_type;location;lat;lon;timestamp;P1;P2;P0
46591;PMS6003;32314;48.748;9.656;2023-06-22T00:01:26;18.00;18.00;14.50
46591;PMS6003;32314;48.748;9.656;2023-06-22T00:04:12;20.75;19.50;15.75
46591;PMS6003;32314;48.748;9.656;2023-06-22T00:06:57;19.50;18.00;14.00
46591;PMS6003;32314;48.748;9.656;2023-06-22T00:09:43;18.00;17.75;15.00
46591;PMS6003;32314;48.748;9.656;2023-06-22T00:12:29;19.00;19.00;15.00
46591;PMS6003;32314;48.748;9.656;2023-06-22T00:15:15;20.25;20.25;15.50
46591;PMS6003;32314;48.748;9.656;2023-06-22T00:18:01;23.25;21.75;14.00
46591;PMS6003;32314;48.748;9.656;2023-06-22T00:20:47;21.00;21.00;15.50
46591;PMS6003;32314;48.748;9.656;2023-06-22T00:23:33;18.75;18.75;15.50
46591;PMS6003;32314;48.748;9.656;2023-06-22T00:26:19;20.25;18.50;16.25
46591;PMS6003;32314;48.748;9.656;2023-06-22T00:29:06;19.00;19.00;15.50
46591;PMS6003;32314;48.748;9.656;2023-06-22T00:31:52;20.00;20.00;15.00
46591;PMS6003;32314;48.748;9.656;2023-06-22T00:34:37;19.00;19.00;17.00
46591;PMS6003;32314;48.748;9.656;2023-06-22T00:37:23;21.00;21.00;15.00
46591;PMS6003;32314;48.748;9.656;2023-06-22T00:40:12;17.75;17.75;14.50
46591;PMS6003;32314;48.748;9.656;2023-06-22T00:42:59;17.75;17.75;14.25
46591;PMS6003;32314;48.748;9.656;2023-06-22T00:45:45;17.50;16.00;15.00
46591;PMS6003;32314;48.748;9.656;2023-06-22T00:48:31;19.50;19.50;16.00
46591;PMS6003;32314;48.748;9.656;2023-06-22T00:51:19;17.00;17.00;15.00
46591;PMS6003;32314;48.748;9.656;2023-06-22T00:54:09;19.00;19.00;14.75
46591;PMS6003;32314;48.748;9.656;2023-06-22T00:56:57;20.25;18.75;13.25
46591;PMS6003;32314;48.748;9.656;2023-06-22T00:59:44;23.00;22.50;16.50
46591;PMS6003;32314;48.748;9.656;2023-06-22T01:02:30;21.00;19.00;14.50
46591;PMS6003;32314;48.748;9.656;2023-06-22T01:05:20;19.00;18.50;14.50
46591;PMS6003;32314;48.748;9.656;2023-06-22T01:08:16;20.75;19.75;16.00
46591;PMS6003;32314;48.748;9.656;2023-06-22T01:11:12;21.25;20.50;17.75
46591;PMS6003;32314;48.748;9.656;2023-06-22T01:16:53;18.75;17.00;14.50
46591;PMS6003;32314;48.748;9.656;2023-06-22T01:22:30;19.75;19.75;16.25
46591;PMS6003;32314;48.748;9.656;2023-06-22T01:25:20;23.00;21.50;17.00
46591;PMS6003;32314;48.748;9.656;2023-06-22T01:31:47;20.50;19.00;14.00
46591;PMS6003;32314;48.748;9.656;2023-06-22T01:34:34;20.75;17.75;13.75
46591;PMS6003;32314;48.748;9.656;2023-06-22T01:37:22;19.00;19.00;15.00
46591;PMS6003;32314;48.748;9.656;2023-06-22T01:40:10;21.50;20.75;15.50
46591;PMS6003;32314;48.748;9.656;2023-06-22T01:42:57;24.25;21.00;15.50
46591;PMS6003;32314;48.748;9.656;2023-06-22T01:45:43;21.00;21.00;16.50
46591;PMS6003;32314;48.748;9.656;2023-06-22T01:48:29;22.00;22.00;16.50
46591;PMS6003;32314;48.748;9.656;2023-06-22T01:51:15;22.25;22.00;16.00
46591;PMS6003;32314;48.748;9.656;2023-06-22T01:54:01;21.75;21.75;17.00
46591;PMS6003;32314;48.748;9.656;2023-06-22T01:56:48;20.00;19.75;16.75
46591;PMS6003;32314;48.748;9.656;2023-06-22T01:59:36;22.50;22.25;16.25
46591;PMS6003;32314;48.748;9.656;2023-06-22T02:02:27;20.50;20.50;17.00
46591;PMS6003;32314;48.748;9.656;2023-06-22T02:05:26;22.50;20.00;15.00
46591;PMS6003;32314;48.748;9.656;2023-06-22T02:08:20;20.50;20.50;17.75
46591;PMS6003;32314;48.748;9.656;2023-06-22T02:11:08;19.25;18.00;12.50
46591;PMS6003;32314;48.748;9.656;2023-06-22T02:13:55;22.00;20.00;17.50
46591;PMS6003;32314;48.748;9.656;2023-06-22T02:16:43;21.25;18.75;15.25
46591;PMS6003;32314;48.748;9.656;2023-06-22T02:19:29;22.50;21.25;15.50
46591;PMS6003;32314;48.748;9.656;2023-06-22T02:22:18;24.25;17.00;14.00
46591;PMS6003;32314;48.748;9.656;2023-06-22T02:25:04;20.00;19.00;14.25
46591;PMS6003;32314;48.748;9.656;2023-06-22T02:27:50;21.00;21.00;16.50
46591;PMS6003;32314;48.748;9.656;2023-06-22T02:30:36;18.25;18.25;14.00
46591;PMS6003;32314;48.748;9.656;2023-06-22T02:33:22;21.50;20.50;16.25
46591;PMS6003;32314;48.748;9.656;2023-06-22T02:36:08;19.50;19.50;15.50
46591;PMS6003;32314;48.748;9.656;2023-06-22T02:38:54;22.00;21.00;15.25
46591;PMS6003;32314;48.748;9.656;2023-06-22T02:41:43;24.50;20.00;16.25
46591;PMS6003;32314;48.748;9.656;2023-06-22T02:44:29;23.75;23.25;17.00
46591;PMS6003;32314;48.748;9.656;2023-06-22T02:47:15;21.25;21.25;16.25
46591;PMS6003;32314;48.748;9.656;2023-06-22T02:50:01;20.75;20.75;16.00
46591;PMS6003;32314;48.748;9.656;2023-06-22T02:52:48;23.00;23.00;17.75
46591;PMS6003;32314;48.748;9.656;2023-06-22T02:55:34;21.00;21.00;17.00
46591;PMS6003;32314;48.748;9.656;2023-06-22T02:58:20;25.75;23.00;17.50
46591;PMS6003;32314;48.748;9.656;2023-06-22T03:01:07;27.75;23.75;17.00
46591;PMS6003;32314;48.748;9.656;2023-06-22T03:03:54;25.75;22.00;16.25
46591;PMS6003;32314;48.748;9.656;2023-06-22T03:06:40;24.50;23.25;17.50
46591;PMS6003;32314;48.748;9.656;2023-06-22T03:09:30;22.25;22.25;17.50
46591;PMS6003;32314;48.748;9.656;2023-06-22T03:12:16;23.25;21.50;15.50
46591;PMS6003;32314;48.748;9.656;2023-06-22T03:15:20;28.25;23.75;17.75
46591;PMS6003;32314;48.748;9.656;2023-06-22T03:18:06;23.25;21.75;16.75
46591;PMS6003;32314;48.748;9.656;2023-06-22T03:20:52;20.75;20.25;14.50
46591;PMS6003;32314;48.748;9.656;2023-06-22T03:23:38;21.00;18.75;12.50
46591;PMS6003;32314;48.748;9.656;2023-06-22T03:26:25;20.00;20.00;15.75
46591;PMS6003;32314;48.748;9.656;2023-06-22T03:29:12;21.50;21.50;14.25
46591;PMS6003;32314;48.748;9.656;2023-06-22T03:31:58;19.75;19.50;14.50
46591;PMS6003;32314;48.748;9.656;2023-06-22T03:34:43;21.25;21.25;17.00
46591;PMS6003;32314;48.748;9.656;2023-06-22T03:37:32;20.25;19.00;15.00
46591;PMS6003;32314;48.748;9.656;2023-06-22T03:40:21;20.00;20.00;15.75
46591;PMS6003;32314;48.748;9.656;2023-06-22T03:43:07;19.00;19.00;15.75
46591;PMS6003;32314;48.748;9.656;2023-06-22T03:45:54;18.00;16.25;14.00
46591;PMS6003;32314;48.748;9.656;2023-06-22T03:48:41;18.25;17.50;15.25
46591;PMS6003;32314;48.748;9.656;2023-06-22T03:51:27;21.00;19.75;15.25
46591;PMS6003;32314;48.748;9.656;2023-06-22T03:54:13;22.75;19.75;14.00
46591;PMS6003;32314;48.748;9.656;2023-06-22T03:56:59;19.00;19.00;16.25
46591;PMS6003;32314;48.748;9.656;2023-06-22T03:59:45;19.00;18.50;14.50
46591;PMS6003;32314;48.748;9.656;2023-06-22T04:02:30;21.00;19.00;15.00
46591;PMS6003;32314;48.748;9.656;2023-06-22T04:05:16;23.25;21.50;17.25
46591;PMS6003;32314;48.748;9.656;2023-06-22T04:08:05;21.50;21.00;15.50
46591;PMS6003;32314;48.748;9.656;2023-06-22T04:10:51;21.50;21.50;16.50
46591;PMS6003;32314;48.748;9.656;2023-06-22T04:13:37;27.50;23.50;15.25
46591;PMS6003;32314;48.748;9.656;2023-06-22T04:16:23;19.00;19.00;13.50
46591;PMS6003;32314;48.748;9.656;2023-06-22T04:19:08;20.00;18.75;15.00
46591;PMS6003;32314;48.748;9.656;2023-06-22T04:21:59;20.00;20.00;16.00
46591;PMS6003;32314;48.748;9.656;2023-06-22T04:24:45;20.50;20.50;15.00
46591;PMS6003;32314;48.748;9.656;2023-06-22T04:27:31;21.25;21.25;18.00
46591;PMS6003;32314;48.748;9.656;2023-06-22T04:30:17;22.00;22.00;17.50
46591;PMS6003;32314;48.748;9.656;2023-06-22T04:33:03;21.50;21.50;16.25
46591;PMS6003;32314;48.748;9.656;2023-06-22T04:35:49;21.00;21.00;15.25
46591;PMS6003;32314;48.748;9.656;2023-06-22T04:38:36;19.75;19.75;16.25
46591;PMS6003;32314;48.748;9.656;2023-06-22T04:41:22;18.75;18.75;15.50
46591;PMS6003;32314;48.748;9.656;2023-06-22T04:44:10;29.75;26.75;19.50
46591;PMS6003;32314;48.748;9.656;2023-06-22T04:46:58;20.00;20.00;15.00
46591;PMS6003;32314;48.748;9.656;2023-06-22T04:49:48;17.75;17.50;12.00
46591;PMS6003;32314;48.748;9.656;2023-06-22T04:52:34;23.75;23.75;19.00
46591;PMS6003;32314;48.748;9.656;2023-06-22T04:55:20;25.00;22.25;17.00
46591;PMS6003;32314;48.748;9.656;2023-06-22T04:58:06;23.50;23.50;16.75
46591;PMS6003;32314;48.748;9.656;2023-06-22T05:00:52;17.75;17.75;13.50
46591;PMS6003;32314;48.748;9.656;2023-06-22T05:03:38;22.50;22.50;16.00
46591;PMS6003;32314;48.748;9.656;2023-06-22T05:06:27;24.50;23.50;17.75
46591;PMS6003;32314;48.748;9.656;2023-06-22T05:09:13;22.75;20.75;17.75
46591;PMS6003;32314;48.748;9.656;2023-06-22T05:11:59;25.25;23.00;17.00
46591;PMS6003;32314;48.748;9.656;2023-06-22T05:14:50;21.00;21.00;16.25
46591;PMS6003;32314;48.748;9.656;2023-06-22T05:17:36;24.00;23.00;17.75
46591;PMS6003;32314;48.748;9.656;2023-06-22T05:20:28;19.75;19.75;16.00
46591;PMS6003;32314;48.748;9.656;2023-06-22T05:23:13;20.25;20.25;17.00
46591;PMS6003;32314;48.748;9.656;2023-06-22T05:26:00;20.25;19.50;16.50
46591;PMS6003;32314;48.748;9.656;2023-06-22T05:28:46;20.25;20.25;18.00
46591;PMS6003;32314;48.748;9.656;2023-06-22T05:31:33;19.50;17.50;14.75
46591;PMS6003;32314;48.748;9.656;2023-06-22T05:34:19;21.75;19.00;14.25
46591;PMS6003;32314;48.748;9.656;2023-06-22T05:37:04;19.00;19.00;16.00
46591;PMS6003;32314;48.748;9.656;2023-06-22T05:39:51;20.00;20.00;15.75
46591;PMS6003;32314;48.748;9.656;2023-06-22T05:42:37;20.75;19.00;14.00
46591;PMS6003;32314;48.748;9.656;2023-06-22T05:45:23;18.50;18.00;13.50
46591;PMS6003;32314;48.748;9.656;2023-06-22T05:48:09;19.00;19.00;14.25
46591;PMS6003;32314;48.748;9.656;2023-06-22T05:50:55;17.25;16.25;13.75
46591;PMS6003;32314;48.748;9.656;2023-06-22T05:53:41;18.75;18.00;14.50
46591;PMS6003;32314;48.748;9.656;2023-06-22T05:56:26;18.00;16.25;13.00
46591;PMS6003;32314;48.748;9.656;2023-06-22T05:59:12;17.50;15.00;12.25
46591;PMS6003;32314;48.748;9.656;2023-06-22T06:01:58;17.00;17.00;14.25
46591;PMS6003;32314;48.748;9.656;2023-06-22T06:04:44;14.25;14.00;11.00
46591;PMS6003;32314;48.748;9.656;2023-06-22T06:07:30;15.00;15.00;10.00
46591;PMS6003;32314;48.748;9.656;2023-06-22T06:10:16;15.00;14.00;12.00
46591;PMS6003;32314;48.748;9.656;2023-06-22T06:13:02;14.50;12.75;11.00
46591;PMS6003;32314;48.748;9.656;2023-06-22T06:15:49;13.25;11.25;9.25
46591;PMS6003;32314;48.748;9.656;2023-06-22T06:18:36;11.75;11.75;9.75
46591;PMS6003;32314;48.748;9.656;2023-06-22T06:21:23;14.25;13.50;11.75
46591;PMS6003;32314;48.748;9.656;2023-06-22T06:24:08;15.00;13.50;10.25
46591;PMS6003;32314;48.748;9.656;2023-06-22T06:26:54;15.00;13.50;10.50
46591;PMS6003;32314;48.748;9.656;2023-06-22T06:29:40;13.00;13.00;11.25
46591;PMS6003;32314;48.748;9.656;2023-06-22T06:32:26;12.25;12.25;10.25
46591;PMS6003;32314;48.748;9.656;2023-06-22T06:35:13;12.50;12.50;10.50
46591;PMS6003;32314;48.748;9.656;2023-06-22T06:38:00;12.00;12.00;9.25
46591;PMS6003;32314;48.748;9.656;2023-06-22T06:40:46;12.33;10.33;8.33
46591;PMS6003;32314;48.748;9.656;2023-06-22T06:43:32;9.33;9.33;7.67
46591;PMS6003;32314;48.748;9.656;2023-06-22T06:46:18;10.00;8.33;7.00
46591;PMS6003;32314;48.748;9.656;2023-06-22T06:49:04;7.00;7.00;6.00
46591;PMS6003;32314;48.748;9.656;2023-06-22T06:51:50;7.00;7.00;6.50
46591;PMS6003;32314;48.748;9.656;2023-06-22T06:54:36;8.00;8.00;7.00
46591;PMS6003;32314;48.748;9.656;2023-06-22T06:57:22;7.75;7.75;6.75
46591;PMS6003;32314;48.748;9.656;2023-06-22T07:00:09;10.50;10.50;8.25
46591;PMS6003;32314;48.748;9.656;2023-06-22T07:02:58;7.75;7.75;6.75
46591;PMS6003;32314;48.748;9.656;2023-06-22T07:05:43;7.50;7.50;7.00
46591;PMS6003;32314;48.748;9.656;2023-06-22T07:08:29;6.50;6.50;5.75
46591;PMS6003;32314;48.748;9.656;2023-06-22T07:11:15;6.50;5.75;4.50
46591;PMS6003;32314;48.748;9.656;2023-06-22T07:14:01;5.00;5.00;4.75
46591;PMS6003;32314;48.748;9.656;2023-06-22T07:16:46;4.25;4.25;4.00
46591;PMS6003;32314;48.748;9.656;2023-06-22T07:19:32;5.75;5.75;5.00
46591;PMS6003;32314;48.748;9.656;2023-06-22T07:22:19;4.00;4.00;3.00
46591;PMS6003;32314;48.748;9.656;2023-06-22T07:25:05;4.00;3.50;3.00
46591;PMS6003;32314;48.748;9.656;2023-06-22T07:28:01;4.00;4.00;4.00
46591;PMS6003;32314;48.748;9.656;2023-06-22T07:30:51;4.50;4.00;4.00
46591;PMS6003;32314;48.748;9.656;2023-06-22T07:33:37;5.75;5.00;4.50
46591;PMS6003;32314;48.748;9.656;2023-06-22T07:36:23;6.50;5.50;4.50
46591;PMS6003;32314;48.748;9.656;2023-06-22T07:39:08;0.00;0.00;0.00
46591;PMS6003;32314;48.748;9.656;2023-06-22T07:41:54;4.00;4.00;3.00
46591;PMS6003;32314;48.748;9.656;2023-06-22T07:44:52;3.25;3.25;3.00
46591;PMS6003;32314;48.748;9.656;2023-06-22T07:47:53;6.00;4.50;4.00
46591;PMS6003;32314;48.748;9.656;2023-06-22T07:50:50;5.00;5.00;4.00
46591;PMS6003;32314;48.748;9.656;2023-06-22T07:53:47;4.50;4.00;3.75
46591;PMS6003;32314;48.748;9.656;2023-06-22T07:56:36;3.25;3.25;3.25
46591;PMS6003;32314;48.748;9.656;2023-06-22T07:59:28;3.50;3.00;3.00
46591;PMS6003;32314;48.748;9.656;2023-06-22T08:02:22;3.75;3.75;3.75
46591;PMS6003;32314;48.748;9.656;2023-06-22T08:05:10;4.75;4.75;4.00
46591;PMS6003;32314;48.748;9.656;2023-06-22T08:07:57;4.00;4.00;3.00
46591;PMS6003;32314;48.748;9.656;2023-06-22T08:10:47;4.00;4.00;3.75
46591;PMS6003;32314;48.748;9.656;2023-06-22T08:13:36;4.25;4.25;4.00
46591;PMS6003;32314;48.748;9.656;2023-06-22T08:16:24;4.75;4.75;3.25
46591;PMS6003;32314;48.748;9.656;2023-06-22T08:19:21;8.00;8.00;7.00
46591;PMS6003;32314;48.748;9.656;2023-06-22T08:22:16;6.75;5.50;5.00
46591;PMS6003;32314;48.748;9.656;2023-06-22T08:25:02;6.50;6.25;5.00
46591;PMS6003;32314;48.748;9.656;2023-06-22T08:27:54;6.50;6.50;4.50
46591;PMS6003;32314;48.748;9.656;2023-06-22T08:30:40;6.75;6.75;4.50
46591;PMS6003;32314;48.748;9.656;2023-06-22T08:33:34;7.25;7.00;5.00
46591;PMS6003;32314;48.748;9.656;2023-06-22T08:36:19;6.00;5.00;4.00
46591;PMS6003;32314;48.748;9.656;2023-06-22T08:39:05;7.75;6.25;5.25
46591;PMS6003;32314;48.748;9.656;2023-06-22T08:42:00;9.00;6.00;5.00
46591;PMS6003;32314;48.748;9.656;2023-06-22T08:44:50;5.75;5.75;5.00
46591;PMS6003;32314;48.748;9.656;2023-06-22T08:47:36;6.75;4.75;4.25
46591;PMS6003;32314;48.748;9.656;2023-06-22T08:50:30;6.75;6.75;6.25
46591;PMS6003;32314;48.748;9.656;2023-06-22T08:53:16;6.75;6.00;5.25
46591;PMS6003;32314;48.748;9.656;2023-06-22T08:56:01;7.50;7.00;6.00
46591;PMS6003;32314;48.748;9.656;2023-06-22T08:58:47;5.50;5.50;4.75
46591;PMS6003;32314;48.748;9.656;2023-06-22T09:01:33;7.00;7.00;6.00
46591;PMS6003;32314;48.748;9.656;2023-06-22T09:04:19;8.00;8.00;5.75
46591;PMS6003;32314;48.748;9.656;2023-06-22T09:07:07;9.50;7.75;6.00
46591;PMS6003;32314;48.748;9.656;2023-06-22T09:09:53;7.25;7.00;5.00
46591;PMS6003;32314;48.748;9.656;2023-06-22T09:12:39;7.00;7.00;6.00
46591;PMS6003;32314;48.748;9.656;2023-06-22T09:15:25;11.00;8.75;7.00
46591;PMS6003;32314;48.748;9.656;2023-06-22T09:18:11;6.75;6.75;5.00
46591;PMS6003;32314;48.748;9.656;2023-06-22T09:20:57;8.50;6.25;5.00
46591;PMS6003;32314;48.748;9.656;2023-06-22T09:23:43;8.25;7.25;6.00
46591;PMS6003;32314;48.748;9.656;2023-06-22T09:26:31;8.50;8.50;7.00
46591;PMS6003;32314;48.748;9.656;2023-06-22T09:29:17;9.50;9.00;6.50
46591;PMS6003;32314;48.748;9.656;2023-06-22T09:32:03;8.50;7.50;6.50
46591;PMS6003;32314;48.748;9.656;2023-06-22T09:34:49;7.75;5.00;4.00
46591;PMS6003;32314;48.748;9.656;2023-06-22T09:37:35;10.50;9.25;7.50
46591;PMS6003;32314;48.748;9.656;2023-06-22T09:40:21;9.75;9.75;7.50
46591;PMS6003;32314;48.748;9.656;2023-06-22T09:43:07;9.25;8.00;7.00
46591;PMS6003;32314;48.748;9.656;2023-06-22T09:45:53;11.00;9.75;9.00
46591;PMS6003;32314;48.748;9.656;2023-06-22T09:48:39;10.50;9.50;8.50
46591;PMS6003;32314;48.748;9.656;2023-06-22T09:51:24;10.50;9.00;7.25
46591;PMS6003;32314;48.748;9.656;2023-06-22T09:54:10;12.00;11.00;8.50
46591;PMS6003;32314;48.748;9.656;2023-06-22T09:56:56;11.00;11.00;10.00
46591;PMS6003;32314;48.748;9.656;2023-06-22T09:59:42;10.25;10.25;9.25
46591;PMS6003;32314;48.748;9.656;2023-06-22T10:02:28;8.25;8.25;7.00
46591;PMS6003;32314;48.748;9.656;2023-06-22T10:05:14;10.00;8.75;7.00
46591;PMS6003;32314;48.748;9.656;2023-06-22T10:08:00;9.75;9.75;8.00
46591;PMS6003;32314;48.748;9.656;2023-06-22T10:10:46;10.75;9.75;7.00
46591;PMS6003;32314;48.748;9.656;2023-06-22T10:13:32;8.75;8.00;7.25
46591;PMS6003;32314;48.748;9.656;2023-06-22T10:16:18;12.25;8.50;6.75
46591;PMS6003;32314;48.748;9.656;2023-06-22T10:19:04;10.25;9.50;8.50
46591;PMS6003;32314;48.748;9.656;2023-06-22T10:21:50;8.75;8.00;7.00
46591;PMS6003;32314;48.748;9.656;2023-06-22T10:24:36;9.50;9.50;7.75
46591;PMS6003;32314;48.748;9.656;2023-06-22T10:27:21;8.50;8.50;7.50
46591;PMS6003;32314;48.748;9.656;2023-06-22T10:30:08;11.50;10.50;9.00
46591;PMS6003;32314;48.748;9.656;2023-06-22T10:32:54;7.25;7.25;6.25
46591;PMS6003;32314;48.748;9.656;2023-06-22T10:35:40;8.00;6.75;5.25
46591;PMS6003;32314;48.748;9.656;2023-06-22T10:38:28;9.75;9.75;7.75
46591;PMS6003;32314;48.748;9.656;2023-06-22T10:41:14;13.75;10.75;8.25
46591;PMS6003;32314;48.748;9.656;2023-06-22T10:44:01;9.50;9.00;7.00
46591;PMS6003;32314;48.748;9.656;2023-06-22T10:46:47;10.00;10.00;8.00
46591;PMS6003;32314;48.748;9.656;2023-06-22T10:49:33;8.50;8.50;7.50
46591;PMS6003;32314;48.748;9.656;2023-06-22T10:52:19;8.75;7.50;5.25
46591;PMS6003;32314;48.748;9.656;2023-06-22T10:55:05;11.25;10.00;8.25
46591;PMS6003;32314;48.748;9.656;2023-06-22T10:57:51;11.75;10.25;9.00
46591;PMS6003;32314;48.748;9.656;2023-06-22T11:00:37;12.50;11.50;8.75
46591;PMS6003;32314;48.748;9.656;2023-06-22T11:03:23;9.75;8.00;7.00
46591;PMS6003;32314;48.748;9.656;2023-06-22T11:06:09;7.75;7.75;6.00
46591;PMS6003;32314;48.748;9.656;2023-06-22T11:08:55;12.00;9.25;8.00
46591;PMS6003;32314;48.748;9.656;2023-06-22T11:11:41;8.25;8.25;7.00
46591;PMS6003;32314;48.748;9.656;2023-06-22T11:14:30;10.50;9.00;7.50
46591;PMS6003;32314;48.748;9.656;2023-06-22T11:17:15;8.75;8.75;7.75
46591;PMS6003;32314;48.748;9.656;2023-06-22T11:20:01;13.00;11.00;9.00
46591;PMS6003;32314;48.748;9.656;2023-06-22T11:22:51;9.25;9.25;7.25
46591;PMS6003;32314;48.748;9.656;2023-06-22T11:25:36;11.25;9.50;8.00
46591;PMS6003;32314;48.748;9.656;2023-06-22T11:28:23;12.25;12.25;9.00
46591;PMS6003;32314;48.748;9.656;2023-06-22T11:31:09;11.00;9.50;8.50
46591;PMS6003;32314;48.748;9.656;2023-06-22T11:33:55;4.75;4.75;4.75
46591;PMS6003;32314;48.748;9.656;2023-06-22T11:36:48;11.75;10.00;7.75
46591;PMS6003;32314;48.748;9.656;2023-06-22T11:39:34;12.00;10.50;8.00
46591;PMS6003;32314;48.748;9.656;2023-06-22T11:42:20;12.25;11.25;9.75
46591;PMS6003;32314;48.748;9.656;2023-06-22T11:45:06;9.75;9.75;8.25
46591;PMS6003;32314;48.748;9.656;2023-06-22T11:47:52;11.25;10.00;9.00
46591;PMS6003;32314;48.748;9.656;2023-06-22T11:50:38;11.00;11.00;8.00
46591;PMS6003;32314;48.748;9.656;2023-06-22T11:53:26;9.25;9.25;7.50
46591;PMS6003;32314;48.748;9.656;2023-06-22T11:56:12;12.25;10.50;8.75
46591;PMS6003;32314;48.748;9.656;2023-06-22T11:58:58;9.00;9.00;7.50
46591;PMS6003;32314;48.748;9.656;2023-06-22T12:01:44;13.25;11.75;10.00
46591;PMS6003;32314;48.748;9.656;2023-06-22T12:04:30;11.25;11.25;9.00
46591;PMS6003;32314;48.748;9.656;2023-06-22T12:07:18;13.75;11.75;10.25
46591;PMS6003;32314;48.748;9.656;2023-06-22T12:10:04;14.00;11.00;9.25
46591;PMS6003;32314;48.748;9.656;2023-06-22T12:12:51;11.25;10.00;9.00
46591;PMS6003;32314;48.748;9.656;2023-06-22T12:15:45;10.25;9.25;7.00
46591;PMS6003;32314;48.748;9.656;2023-06-22T12:18:32;13.50;10.00;8.00
46591;PMS6003;32314;48.748;9.656;2023-06-22T12:21:18;11.50;11.25;9.25
46591;PMS6003;32314;48.748;9.656;2023-06-22T12:24:04;8.25;8.25;6.50
46591;PMS6003;32314;48.748;9.656;2023-06-22T12:26:50;11.50;10.00;8.25
46591;PMS6003;32314;48.748;9.656;2023-06-22T12:29:36;12.00;10.50;8.25
46591;PMS6003;32314;48.748;9.656;2023-06-22T12:32:28;9.75;9.75;9.25
46591;PMS6003;32314;48.748;9.656;2023-06-22T12:35:14;14.00;11.75;9.75
46591;PMS6003;32314;48.748;9.656;2023-06-22T12:38:00;12.50;11.25;10.00
46591;PMS6003;32314;48.748;9.656;2023-06-22T12:40:46;13.25;10.00;8.00
46591;PMS6003;32314;48.748;9.656;2023-06-22T12:43:32;13.00;11.00;10.00
46591;PMS6003;32314;48.748;9.656;2023-06-22T12:46:18;13.75;12.25;10.75
46591;PMS6003;32314;48.748;9.656;2023-06-22T12:49:04;11.50;11.00;10.00
46591;PMS6003;32314;48.748;9.656;2023-06-22T12:51:50;8.00;8.00;7.00
46591;PMS6003;32314;48.748;9.656;2023-06-22T12:54:36;10.25;10.25;8.75
46591;PMS6003;32314;48.748;9.656;2023-06-22T12:57:22;12.25;9.50;7.75
46591;PMS6003;32314;48.748;9.656;2023-06-22T13:00:09;13.00;11.50;9.50
46591;PMS6003;32314;48.748;9.656;2023-06-22T13:02:58;10.75;9.25;7.25
46591;PMS6003;32314;48.748;9.656;2023-06-22T13:05:43;12.00;10.25;8.25
46591;PMS6003;32314;48.748;9.656;2023-06-22T13:08:29;12.00;10.50;8.25
46591;PMS6003;32314;48.748;9.656;2023-06-22T13:11:15;11.00;10.50;8.50
46591;PMS6003;32314;48.748;9.656;2023-06-22T13:14:02;13.50;10.75;9.75
46591;PMS6003;32314;48.748;9.656;2023-06-22T13:16:47;13.75;9.00;7.25
46591;PMS6003;32314;48.748;9.656;2023-06-22T13:19:33;14.00;12.00;10.00
46591;PMS6003;32314;48.748;9.656;2023-06-22T13:22:35;12.25;11.50;8.50
46591;PMS6003;32314;48.748;9.656;2023-06-22T13:25:28;14.50;12.00;9.00
46591;PMS6003;32314;48.748;9.656;2023-06-22T13:28:14;11.00;10.50;8.75
46591;PMS6003;32314;48.748;9.656;2023-06-22T13:31:04;8.75;8.75;6.25
46591;PMS6003;32314;48.748;9.656;2023-06-22T13:33:50;12.00;8.00;6.75
46591;PMS6003;32314;48.748;9.656;2023-06-22T13:36:37;10.25;9.50;8.00
46591;PMS6003;32314;48.748;9.656;2023-06-22T13:39:23;10.50;8.00;7.00
46591;PMS6003;32314;48.748;9.656;2023-06-22T13:42:09;10.25;8.00;7.00
46591;PMS6003;32314;48.748;9.656;2023-06-22T13:44:55;15.00;12.00;8.00
46591;PMS6003;32314;48.748;9.656;2023-06-22T13:47:40;8.75;8.50;6.75
46591;PMS6003;32314;48.748;9.656;2023-06-22T13:50:26;8.25;8.25;7.00
46591;PMS6003;32314;48.748;9.656;2023-06-22T13:53:14;11.50;10.00;8.25
46591;PMS6003;32314;48.748;9.656;2023-06-22T13:56:01;12.25;10.25;8.25
46591;PMS6003;32314;48.748;9.656;2023-06-22T13:58:46;8.50;8.50;6.50
46591;PMS6003;32314;48.748;9.656;2023-06-22T14:01:32;8.00;8.00;6.25
46591;PMS6003;32314;48.748;9.656;2023-06-22T14:04:18;8.25;8.25;6.75
46591;PMS6003;32314;48.748;9.656;2023-06-22T14:07:08;11.50;10.00;8.00
46591;PMS6003;32314;48.748;9.656;2023-06-22T14:09:54;8.25;8.25;7.25
46591;PMS6003;32314;48.748;9.656;2023-06-22T14:12:40;8.75;8.25;7.00
46591;PMS6003;32314;48.748;9.656;2023-06-22T14:15:26;8.75;8.75;7.50
46591;PMS6003;32314;48.748;9.656;2023-06-22T14:18:11;9.00;7.25;6.25
46591;PMS6003;32314;48.748;9.656;2023-06-22T14:20:57;8.75;8.75;6.75
46591;PMS6003;32314;48.748;9.656;2023-06-22T14:23:43;10.00;8.25;7.00
46591;PMS6003;32314;48.748;9.656;2023-06-22T14:26:34;7.50;7.50;6.25
46591;PMS6003;32314;48.748;9.656;2023-06-22T14:29:20;6.25;6.25;5.00
46591;PMS6003;32314;48.748;9.656;2023-06-22T14:32:09;8.75;6.00;5.00
46591;PMS6003;32314;48.748;9.656;2023-06-22T14:34:55;10.00;10.00;5.25
46591;PMS6003;32314;48.748;9.656;2023-06-22T14:37:40;9.00;6.75;6.00
46591;PMS6003;32314;48.748;9.656;2023-06-22T14:40:26;7.00;7.00;6.00
46591;PMS6003;32314;48.748;9.656;2023-06-22T14:43:12;7.25;7.25;5.75
46591;PMS6003;32314;48.748;9.656;2023-06-22T14:45:59;8.75;7.75;5.75
46591;PMS6003;32314;48.748;9.656;2023-06-22T14:48:44;9.75;6.50;5.50
46591;PMS6003;32314;48.748;9.656;2023-06-22T14:51:33;8.75;7.25;6.00
46591;PMS6003;32314;48.748;9.656;2023-06-22T14:54:21;7.00;5.75;5.50
46591;PMS6003;32314;48.748;9.656;2023-06-22T14:57:07;7.75;6.00;4.50
46591;PMS6003;32314;48.748;9.656;2023-06-22T14:59:52;8.50;6.00;4.75
46591;PMS6003;32314;48.748;9.656;2023-06-22T15:02:38;8.50;6.25;4.75
46591;PMS6003;32314;48.748;9.656;2023-06-22T15:05:24;7.25;6.00;5.50
46591;PMS6003;32314;48.748;9.656;2023-06-22T15:08:10;6.00;6.00;4.75
46591;PMS6003;32314;48.748;9.656;2023-06-22T15:10:59;7.50;5.75;5.50
46591;PMS6003;32314;48.748;9.656;2023-06-22T15:13:48;8.25;7.25;6.00
46591;PMS6003;32314;48.748;9.656;2023-06-22T15:16:34;7.00;5.75;5.00
46591;PMS6003;32314;48.748;9.656;2023-06-22T15:19:19;7.75;6.50;5.25
46591;PMS6003;32314;48.748;9.656;2023-06-22T15:22:05;8.50;8.00;6.50
46591;PMS6003;32314;48.748;9.656;2023-06-22T15:24:52;6.75;6.75;6.00
46591;PMS6003;32314;48.748;9.656;2023-06-22T15:27:43;11.50;10.25;6.25
46591;PMS6003;32314;48.748;9.656;2023-06-22T15:30:29;10.25;7.00;6.25
46591;PMS6003;32314;48.748;9.656;2023-06-22T15:33:16;6.50;6.50;6.00
46591;PMS6003;32314;48.748;9.656;2023-06-22T15:36:02;6.25;6.25;5.00
46591;PMS6003;32314;48.748;9.656;2023-06-22T15:38:49;7.00;6.75;5.75
46591;PMS6003;32314;48.748;9.656;2023-06-22T15:41:35;6.50;6.50;5.25
46591;PMS6003;32314;48.748;9.656;2023-06-22T15:44:21;9.75;9.50;7.00
46591;PMS6003;32314;48.748;9.656;2023-06-22T15:47:07;10.75;8.00;6.75
46591;PMS6003;32314;48.748;9.656;2023-06-22T15:49:53;9.25;8.25;7.25
46591;PMS6003;32314;48.748;9.656;2023-06-22T15:52:39;9.75;9.50;7.25
46591;PMS6003;32314;48.748;9.656;2023-06-22T15:55:25;11.25;9.00;8.50
46591;PMS6003;32314;48.748;9.656;2023-06-22T15:58:12;9.00;7.25;6.25
46591;PMS6003;32314;48.748;9.656;2023-06-22T16:00:58;6.75;6.75;6.00
46591;PMS6003;32314;48.748;9.656;2023-06-22T16:03:44;8.25;7.25;6.50